sensor_id;sensor_type;location;lat;lon;timestamp;pressure;altitude;pressure_sealevel;temperature;humidity
58927;BME280;44712;52.530;9.760;2023-08-07T00:02:03;100056.16;;;15.49;100.00
58927;BME280;44712;52.530;9.760;2023-08-07T00:04:30;100049.13;;;15.43;100.00
58927;BME280;44712;52.530;9.760;2023-08-07T00:06:57;100051.72;;;15.46;100.00
58927;BME280;44712;52.530;9.760;2023-08-07T00:09:24;100049.72;;;15.50;100.00
58927;BME280;44712;52.530;9.760;2023-08-07T00:11:50;100040.47;;;15.54;100.00
58927;BME280;44712;52.530;9.760;2023-08-07T00:14:17;100048.09;;;15.46;100.00
58927;BME280;44712;52.530;9.760;2023-08-07T00:16:44;100052.66;;;15.45;100.00
58927;BME280;44712;52.530;9.760;2023-08-07T00:19:11;100041.00;;;15.42;100.00
58927;BME280;44712;52.530;9.760;2023-08-07T00:21:37;100036.56;;;15.39;100.00
58927;BME280;44712;52.530;9.760;2023-08-07T00:24:05;100038.34;;;15.40;100.00
58927;BME280;44712;52.530;9.760;2023-08-07T00:26:32;100039.09;;;15.44;100.00
58927;BME280;44712;52.530;9.760;2023-08-07T00:29:00;100041.28;;;15.35;100.00
58927;BME280;44712;52.530;9.760;2023-08-07T00:31:26;100042.03;;;15.39;100.00
58927;BME280;44712;52.530;9.760;2023-08-07T00:33:58;100046.78;;;15.13;100.00
58927;BME280;44712;52.530;9.760;2023-08-07T00:36:24;100045.75;;;15.16;100.00
58927;BME280;44712;52.530;9.760;2023-08-07T00:38:52;100057.34;;;15.21;100.00
58927;BME280;44712;52.530;9.760;2023-08-07T00:50:31;100046.16;;;15.06;100.00
58927;BME280;44712;52.530;9.760;2023-08-07T00:53:13;100040.69;;;15.06;100.00
58927;BME280;44712;52.530;9.760;2023-08-07T00:55:41;100040.06;;;15.00;100.00
58927;BME280;44712;52.530;9.760;2023-08-07T00:58:08;100047.75;;;14.90;100.00
58927;BME280;44712;52.530;9.760;2023-08-07T01:00:35;100041.47;;;14.88;100.00
58927;BME280;44712;52.530;9.760;2023-08-07T01:03:05;100043.13;;;14.92;100.00
58927;BME280;44712;52.530;9.760;2023-08-07T01:05:34;100044.03;;;14.93;100.00
58927;BME280;44712;52.530;9.760;2023-08-07T01:08:01;100035.09;;;14.89;100.00
58927;BME280;44712;52.530;9.760;2023-08-07T01:13:29;100041.47;;;14.88;100.00
58927;BME280;44712;52.530;9.760;2023-08-07T01:16:04;100047.84;;;14.88;100.00
58927;BME280;44712;52.530;9.760;2023-08-07T01:18:34;100049.84;;;14.83;100.00
58927;BME280;44712;52.530;9.760;2023-08-07T01:21:03;100048.88;;;14.84;100.00
58927;BME280;44712;52.530;9.760;2023-08-07T01:23:30;100049.66;;;14.88;100.00
58927;BME280;44712;52.530;9.760;2023-08-07T01:25:57;100046.78;;;14.91;100.00
58927;BME280;44712;52.530;9.760;2023-08-07T01:28:27;100046.16;;;14.84;100.00
58927;BME280;44712;52.530;9.760;2023-08-07T01:30:59;100039.84;;;14.84;100.00
58927;BME280;44712;52.530;9.760;2023-08-07T01:33:34;100039.84;;;14.84;100.00
58927;BME280;44712;52.530;9.760;2023-08-07T01:36:05;100037.94;;;14.86;100.00
58927;BME280;44712;52.530;9.760;2023-08-07T01:38:34;100039.97;;;14.81;100.00
58927;BME280;44712;52.530;9.760;2023-08-07T02:55:29;100042.50;;;14.16;100.00
58927;BME280;44712;52.530;9.760;2023-08-07T02:57:56;100050.09;;;14.07;100.00
58927;BME280;44712;52.530;9.760;2023-08-07T03:00:23;100047.81;;;14.19;100.00
58927;BME280;44712;52.530;9.760;2023-08-07T03:06:00;100038.84;;;14.17;100.00
58927;BME280;44712;52.530;9.760;2023-08-07T03:08:27;100048.66;;;14.21;100.00
58927;BME280;44712;52.530;9.760;2023-08-07T03:10:56;100046.94;;;14.18;100.00
58927;BME280;44712;52.530;9.760;2023-08-07T03:13:24;100053.16;;;14.22;100.00
58927;BME280;44712;52.530;9.760;2023-08-07T03:16:02;100051.25;;;14.24;100.00
58927;BME280;44712;52.530;9.760;2023-08-07T03:18:29;100050.31;;;14.25;100.00
58927;BME280;44712;52.530;9.760;2023-08-07T03:20:56;100052.16;;;14.25;100.00
58927;BME280;44712;52.530;9.760;2023-08-07T03:23:24;100044.75;;;14.28;100.00
58927;BME280;44712;52.530;9.760;2023-08-07T03:32:05;100052.91;;;14.28;100.00
58927;BME280;44712;52.530;9.760;2023-08-07T04:09:52;100068.16;;;14.32;100.00
58927;BME280;44712;52.530;9.760;2023-08-07T04:12:19;100065.44;;;14.32;100.00
58927;BME280;44712;52.530;9.760;2023-08-07T04:21:04;100064.44;;;14.35;100.00
58927;BME280;44712;52.530;9.760;2023-08-07T06:20:02;100154.34;;;14.57;100.00
58927;BME280;44712;52.530;9.760;2023-08-07T06:22:31;100153.50;;;14.55;100.00
58927;BME280;44712;52.530;9.760;2023-08-07T06:24:59;100146.53;;;14.48;100.00
58927;BME280;44712;52.530;9.760;2023-08-07T06:27:26;100144.31;;;14.59;100.00
58927;BME280;44712;52.530;9.760;2023-08-07T06:29:53;100146.78;;;14.65;100.00
58927;BME280;44712;52.530;9.760;2023-08-07T06:32:19;100144.91;;;14.67;100.00
58927;BME280;44712;52.530;9.760;2023-08-07T06:34:46;100146.19;;;14.57;100.00
58927;BME280;44712;52.530;9.760;2023-08-07T06:37:13;100145.09;;;14.61;100.00
58927;BME280;44712;52.530;9.760;2023-08-07T06:39:39;100150.38;;;14.67;100.00
58927;BME280;44712;52.530;9.760;2023-08-07T06:42:07;100152.59;;;14.80;100.00
58927;BME280;44712;52.530;9.760;2023-08-07T06:44:36;100144.28;;;14.83;100.00
58927;BME280;44712;52.530;9.760;2023-08-07T06:47:02;100151.53;;;14.84;100.00
58927;BME280;44712;52.530;9.760;2023-08-07T06:49:29;100155.75;;;14.91;100.00
58927;BME280;44712;52.530;9.760;2023-08-07T06:51:59;100148.78;;;14.84;100.00
58927;BME280;44712;52.530;9.760;2023-08-07T06:54:25;100152.59;;;14.80;100.00
58927;BME280;44712;52.530;9.760;2023-08-07T06:56:52;100155.91;;;14.88;100.00
58927;BME280;44712;52.530;9.760;2023-08-07T06:59:18;100155.75;;;14.91;100.00
58927;BME280;44712;52.530;9.760;2023-08-07T07:01:45;100154.00;;;14.90;100.00
58927;BME280;44712;52.530;9.760;2023-08-07T07:04:12;100160.84;;;15.00;100.00
58927;BME280;44712;52.530;9.760;2023-08-07T07:06:39;100166.19;;;15.03;100.00
58927;BME280;44712;52.530;9.760;2023-08-07T07:09:06;100151.47;;;15.07;100.00
58927;BME280;44712;52.530;9.760;2023-08-07T07:11:33;100166.94;;;15.07;100.00
58927;BME280;44712;52.530;9.760;2023-08-07T07:14:01;100160.75;;;15.03;100.00
58927;BME280;44712;52.530;9.760;2023-08-07T07:16:28;100163.19;;;15.10;100.00
58927;BME280;44712;52.530;9.760;2023-08-07T07:18:56;100169.63;;;15.09;100.00
58927;BME280;44712;52.530;9.760;2023-08-07T07:21:24;100174.09;;;15.10;100.00
58927;BME280;44712;52.530;9.760;2023-08-07T07:23:51;100167.47;;;15.17;100.00
58927;BME280;44712;52.530;9.760;2023-08-07T07:26:18;100168.84;;;15.27;100.00
58927;BME280;44712;52.530;9.760;2023-08-07T07:28:45;100164.63;;;15.40;100.00
58927;BME280;44712;52.530;9.760;2023-08-07T07:31:12;100175.06;;;15.53;100.00
58927;BME280;44712;52.530;9.760;2023-08-07T07:33:39;100164.53;;;15.44;100.00
58927;BME280;44712;52.530;9.760;2023-08-07T07:36:15;100176.94;;;15.51;100.00
58927;BME280;44712;52.530;9.760;2023-08-07T07:38:45;100173.28;;;15.52;100.00
58927;BME280;44712;52.530;9.760;2023-08-07T07:41:12;100174.91;;;15.56;100.00
58927;BME280;44712;52.530;9.760;2023-08-07T07:43:39;100185.81;;;15.56;100.00
58927;BME280;44712;52.530;9.760;2023-08-07T07:46:06;100188.41;;;15.59;100.00
58927;BME280;44712;52.530;9.760;2023-08-07T07:48:33;100185.44;;;15.65;100.00
58927;BME280;44712;52.530;9.760;2023-08-07T07:51:01;100190.00;;;15.65;100.00
58927;BME280;44712;52.530;9.760;2023-08-07T07:53:28;100182.97;;;15.59;100.00
58927;BME280;44712;52.530;9.760;2023-08-07T07:55:55;100189.25;;;15.61;100.00
58927;BME280;44712;52.530;9.760;2023-08-07T07:58:22;100189.38;;;15.58;100.00
58927;BME280;44712;52.530;9.760;2023-08-07T08:00:49;100191.28;;;15.56;100.00
58927;BME280;44712;52.530;9.760;2023-08-07T08:03:18;100198.13;;;15.66;100.00
58927;BME280;44712;52.530;9.760;2023-08-07T08:05:49;100192.28;;;15.76;100.00
58927;BME280;44712;52.530;9.760;2023-08-07T08:08:16;100194.75;;;15.82;100.00
58927;BME280;44712;52.530;9.760;2023-08-07T08:10:44;100194.34;;;15.91;100.00
58927;BME280;44712;52.530;9.760;2023-08-07T08:13:14;100183.47;;;16.12;100.00
58927;BME280;44712;52.530;9.760;2023-08-07T08:15:41;100200.09;;;16.05;100.00
58927;BME280;44712;52.530;9.760;2023-08-07T08:18:08;100204.06;;;16.19;100.00
58927;BME280;44712;52.530;9.760;2023-08-07T08:20:36;100199.03;;;16.30;100.00
58927;BME280;44712;52.530;9.760;2023-08-07T08:23:03;100204.59;;;16.48;100.00
58927;BME280;44712;52.530;9.760;2023-08-07T08:25:31;100197.47;;;16.83;100.00
58927;BME280;44712;52.530;9.760;2023-08-07T08:27:59;100193.22;;;17.16;100.00
58927;BME280;44712;52.530;9.760;2023-08-07T08:30:27;100199.41;;;17.19;100.00
58927;BME280;44712;52.530;9.760;2023-08-07T08:32:55;100191.88;;;17.24;100.00
58927;BME280;44712;52.530;9.760;2023-08-07T08:35:22;100207.41;;;17.24;100.00
58927;BME280;44712;52.530;9.760;2023-08-07T08:37:49;100208.00;;;17.12;100.00
58927;BME280;44712;52.530;9.760;2023-08-07T08:40:15;100216.47;;;16.86;100.00
58927;BME280;44712;52.530;9.760;2023-08-07T08:42:45;100259.50;;;16.81;100.00
58927;BME280;44712;52.530;9.760;2023-08-07T08:45:15;100272.31;;;16.19;100.00
58927;BME280;44712;52.530;9.760;2023-08-07T08:47:43;100259.03;;;15.89;100.00
58927;BME280;44712;52.530;9.760;2023-08-07T08:50:13;100255.34;;;15.68;100.00
58927;BME280;44712;52.530;9.760;2023-08-07T08:52:44;100250.03;;;15.65;100.00
58927;BME280;44712;52.530;9.760;2023-08-07T08:55:13;100255.66;;;15.60;100.00
58927;BME280;44712;52.530;9.760;2023-08-07T08:57:40;100251.28;;;15.56;100.00
58927;BME280;44712;52.530;9.760;2023-08-07T09:00:09;100247.97;;;15.48;100.00
58927;BME280;44712;52.530;9.760;2023-08-07T09:02:45;100248.16;;;15.65;100.00
58927;BME280;44712;52.530;9.760;2023-08-07T09:05:14;100255.47;;;15.87;100.00
58927;BME280;44712;52.530;9.760;2023-08-07T09:07:42;100250.78;;;16.11;100.00
58927;BME280;44712;52.530;9.760;2023-08-07T09:10:09;100250.53;;;16.17;100.00
58927;BME280;44712;52.530;9.760;2023-08-07T09:12:40;100258.69;;;16.39;100.00
58927;BME280;44712;52.530;9.760;2023-08-07T09:15:09;100250.75;;;16.33;100.00
58927;BME280;44712;52.530;9.760;2023-08-07T09:17:42;100258.78;;;16.36;100.00
58927;BME280;44712;52.530;9.760;2023-08-07T09:20:10;100262.16;;;16.22;100.00
58927;BME280;44712;52.530;9.760;2023-08-07T09:22:41;100268.38;;;16.26;100.00
58927;BME280;44712;52.530;9.760;2023-08-07T09:25:09;100261.81;;;16.51;100.00
58927;BME280;44712;52.530;9.760;2023-08-07T09:27:40;100261.13;;;16.66;100.00
58927;BME280;44712;52.530;9.760;2023-08-07T09:30:07;100262.44;;;16.77;100.00
58927;BME280;44712;52.530;9.760;2023-08-07T09:32:37;100269.69;;;16.78;100.00
58927;BME280;44712;52.530;9.760;2023-08-07T09:35:06;100260.97;;;16.69;100.00
58927;BME280;44712;52.530;9.760;2023-08-07T09:37:36;100277.22;;;16.72;100.00
58927;BME280;44712;52.530;9.760;2023-08-07T09:40:03;100271.44;;;16.60;100.00
58927;BME280;44712;52.530;9.760;2023-08-07T09:42:31;100268.03;;;16.54;100.00
58927;BME280;44712;52.530;9.760;2023-08-07T09:45:01;100276.25;;;16.73;100.00
58927;BME280;44712;52.530;9.760;2023-08-07T09:47:28;100273.38;;;16.77;100.00
58927;BME280;44712;52.530;9.760;2023-08-07T09:49:56;100272.56;;;16.74;100.00
58927;BME280;44712;52.530;9.760;2023-08-07T09:52:24;100273.06;;;17.03;100.00
58927;BME280;44712;52.530;9.760;2023-08-07T09:54:56;100259.56;;;17.00;100.00
58927;BME280;44712;52.530;9.760;2023-08-07T09:57:22;100265.47;;;17.10;100.00
58927;BME280;44712;52.530;9.760;2023-08-07T09:59:50;100274.19;;;16.99;100.00
58927;BME280;44712;52.530;9.760;2023-08-07T10:02:19;100268.75;;;16.79;100.00
58927;BME280;44712;52.530;9.760;2023-08-07T10:04:49;100276.13;;;16.97;100.00
58927;BME280;44712;52.530;9.760;2023-08-07T10:07:16;100270.50;;;17.00;100.00
58927;BME280;44712;52.530;9.760;2023-08-07T10:09:43;100278.94;;;16.96;100.00
58927;BME280;44712;52.530;9.760;2023-08-07T10:12:11;100275.25;;;17.16;100.00
58927;BME280;44712;52.530;9.760;2023-08-07T10:14:40;100278.69;;;17.00;100.00
58927;BME280;44712;52.530;9.760;2023-08-07T10:17:07;100287.16;;;16.94;100.00
58927;BME280;44712;52.530;9.760;2023-08-07T10:19:34;100295.91;;;16.82;100.00
58927;BME280;44712;52.530;9.760;2023-08-07T10:22:02;100319.09;;;16.52;100.00
58927;BME280;44712;52.530;9.760;2023-08-07T10:24:30;100307.91;;;16.59;100.00
58927;BME280;44712;52.530;9.760;2023-08-07T10:26:58;100318.88;;;16.36;100.00
58927;BME280;44712;52.530;9.760;2023-08-07T10:29:26;100316.34;;;16.32;100.00
58927;BME280;44712;52.530;9.760;2023-08-07T10:31:56;100328.63;;;15.99;100.00
58927;BME280;44712;52.530;9.760;2023-08-07T10:34:24;100309.94;;;15.90;100.00
58927;BME280;44712;52.530;9.760;2023-08-07T10:36:51;100317.28;;;15.88;100.00
58927;BME280;44712;52.530;9.760;2023-08-07T10:39:19;100303.72;;;15.86;100.00
58927;BME280;44712;52.530;9.760;2023-08-07T10:41:46;100304.94;;;16.22;100.00
58927;BME280;44712;52.530;9.760;2023-08-07T10:44:21;100314.16;;;16.40;100.00
58927;BME280;44712;52.530;9.760;2023-08-07T10:46:54;100322.97;;;16.67;100.00
58927;BME280;44712;52.530;9.760;2023-08-07T10:49:33;100324.91;;;16.65;100.00
58927;BME280;44712;52.530;9.760;2023-08-07T10:52:05;100333.34;;;16.59;100.00
58927;BME280;44712;52.530;9.760;2023-08-07T10:54:44;100334.78;;;16.47;100.00
58927;BME280;44712;52.530;9.760;2023-08-07T10:57:12;100338.13;;;16.54;100.00
58927;BME280;44712;52.530;9.760;2023-08-07T11:02:28;100344.81;;;16.26;100.00
58927;BME280;44712;52.530;9.760;2023-08-07T11:04:56;100346.63;;;16.05;100.00
58927;BME280;44712;52.530;9.760;2023-08-07T11:07:27;100348.88;;;16.16;100.00
58927;BME280;44712;52.530;9.760;2023-08-07T11:09:55;100344.84;;;16.24;100.00
58927;BME280;44712;52.530;9.760;2023-08-07T11:12:26;100338.41;;;16.48;100.00
58927;BME280;44712;52.530;9.760;2023-08-07T11:14:54;100337.47;;;16.69;100.00
58927;BME280;44712;52.530;9.760;2023-08-07T11:17:28;100333.91;;;17.09;100.00
58927;BME280;44712;52.530;9.760;2023-08-07T11:19:56;100328.72;;;17.02;100.00
58927;BME280;44712;52.530;9.760;2023-08-07T11:22:23;100330.78;;;16.97;100.00
58927;BME280;44712;52.530;9.760;2023-08-07T11:24:50;100331.06;;;16.91;100.00
58927;BME280;44712;52.530;9.760;2023-08-07T11:27:17;100326.88;;;16.82;100.00
58927;BME280;44712;52.530;9.760;2023-08-07T11:29:48;100335.00;;;16.84;100.00
58927;BME280;44712;52.530;9.760;2023-08-07T11:32:15;100335.38;;;16.55;100.00
58927;BME280;44712;52.530;9.760;2023-08-07T11:34:48;100346.31;;;16.33;100.00
58927;BME280;44712;52.530;9.760;2023-08-07T11:37:16;100332.44;;;15.95;100.00
58927;BME280;44712;52.530;9.760;2023-08-07T11:39:44;100340.75;;;15.92;100.00
58927;BME280;44712;52.530;9.760;2023-08-07T11:42:11;100344.63;;;16.09;100.00
58927;BME280;44712;52.530;9.760;2023-08-07T11:44:41;100356.69;;;16.25;100.00
58927;BME280;44712;52.530;9.760;2023-08-07T11:47:09;100350.31;;;16.24;100.00
58927;BME280;44712;52.530;9.760;2023-08-07T11:49:36;100354.41;;;16.78;100.00
58927;BME280;44712;52.530;9.760;2023-08-07T11:52:03;100355.09;;;16.83;100.00
58927;BME280;44712;52.530;9.760;2023-08-07T11:54:30;100354.75;;;17.11;100.00
58927;BME280;44712;52.530;9.760;2023-08-07T11:56:57;100353.69;;;17.34;100.00
58927;BME280;44712;52.530;9.760;2023-08-07T11:59:25;100367.22;;;17.37;98.56
58927;BME280;44712;52.530;9.760;2023-08-07T12:01:52;100356.41;;;17.34;96.64
58927;BME280;44712;52.530;9.760;2023-08-07T12:04:19;100381.69;;;17.39;97.23
58927;BME280;44712;52.530;9.760;2023-08-07T12:06:56;100401.09;;;16.94;95.22
58927;BME280;44712;52.530;9.760;2023-08-07T12:09:25;100404.09;;;16.45;98.80
58927;BME280;44712;52.530;9.760;2023-08-07T12:11:58;100406.72;;;16.03;100.00
58927;BME280;44712;52.530;9.760;2023-08-07T12:14:32;100416.56;;;16.08;100.00
58927;BME280;44712;52.530;9.760;2023-08-07T12:17:01;100408.56;;;16.25;100.00
58927;BME280;44712;52.530;9.760;2023-08-07T12:19:36;100399.81;;;16.17;100.00
58927;BME280;44712;52.530;9.760;2023-08-07T12:22:06;100411.63;;;16.39;100.00
58927;BME280;44712;52.530;9.760;2023-08-07T12:24:35;100419.53;;;16.46;100.00
58927;BME280;44712;52.530;9.760;2023-08-07T12:27:04;100397.72;;;16.66;100.00
58927;BME280;44712;52.530;9.760;2023-08-07T12:29:31;100401.84;;;16.97;100.00
58927;BME280;44712;52.530;9.760;2023-08-07T12:31:57;100410.19;;;17.15;100.00
58927;BME280;44712;52.530;9.760;2023-08-07T12:34:26;100400.34;;;16.90;95.48
58927;BME280;44712;52.530;9.760;2023-08-07T12:36:55;100410.19;;;17.15;95.80
58927;BME280;44712;52.530;9.760;2023-08-07T12:39:22;100406.00;;;17.27;96.34
58927;BME280;44712;52.530;9.760;2023-08-07T12:42:09;100414.81;;;17.52;94.06
58927;BME280;44712;52.530;9.760;2023-08-07T12:44:38;100416.69;;;17.52;93.57
58927;BME280;44712;52.530;9.760;2023-08-07T12:47:05;100415.50;;;17.18;88.05
58927;BME280;44712;52.530;9.760;2023-08-07T12:49:32;100411.31;;;17.30;92.35
58927;BME280;44712;52.530;9.760;2023-08-07T12:51:59;100415.34;;;17.42;91.15
58927;BME280;44712;52.530;9.760;2023-08-07T12:54:30;100425.34;;;17.22;86.91
58927;BME280;44712;52.530;9.760;2023-08-07T12:56:57;100401.84;;;16.97;86.73
58927;BME280;44712;52.530;9.760;2023-08-07T12:59:24;100412.03;;;16.71;86.23
58927;BME280;44712;52.530;9.760;2023-08-07T13:01:51;100415.75;;;16.70;88.26
58927;BME280;44712;52.530;9.760;2023-08-07T13:04:19;100419.28;;;16.72;87.48
58927;BME280;44712;52.530;9.760;2023-08-07T13:06:46;100423.81;;;16.73;85.49
58927;BME280;44712;52.530;9.760;2023-08-07T13:09:18;100418.88;;;16.82;82.76
58927;BME280;44712;52.530;9.760;2023-08-07T13:11:46;100427.91;;;16.84;82.65
58927;BME280;44712;52.530;9.760;2023-08-07T13:14:12;100424.41;;;17.02;82.10
58927;BME280;44712;52.530;9.760;2023-08-07T13:16:39;100438.88;;;17.25;81.93
58927;BME280;44712;52.530;9.760;2023-08-07T13:19:06;100434.06;;;17.51;76.27
58927;BME280;44712;52.530;9.760;2023-08-07T13:21:32;100425.94;;;17.49;77.53
58927;BME280;44712;52.530;9.760;2023-08-07T13:23:59;100435.59;;;17.37;76.67
58927;BME280;44712;52.530;9.760;2023-08-07T13:26:26;100446.88;;;17.30;75.99
58927;BME280;44712;52.530;9.760;2023-08-07T13:28:53;100448.44;;;17.35;77.25
58927;BME280;44712;52.530;9.760;2023-08-07T13:31:19;100449.88;;;17.63;80.32
58927;BME280;44712;52.530;9.760;2023-08-07T13:33:46;100457.72;;;17.52;74.94
58927;BME280;44712;52.530;9.760;2023-08-07T13:36:13;100464.09;;;17.71;77.27
58927;BME280;44712;52.530;9.760;2023-08-07T13:38:41;100460.22;;;17.56;73.38
58927;BME280;44712;52.530;9.760;2023-08-07T13:41:07;100458.81;;;17.48;75.17
58927;BME280;44712;52.530;9.760;2023-08-07T13:43:34;100469.34;;;17.36;75.02
58927;BME280;44712;52.530;9.760;2023-08-07T13:46:03;100466.72;;;17.54;76.04
58927;BME280;44712;52.530;9.760;2023-08-07T13:48:29;100467.22;;;17.64;76.19
58927;BME280;44712;52.530;9.760;2023-08-07T13:50:56;100467.81;;;17.70;78.11
58927;BME280;44712;52.530;9.760;2023-08-07T13:53:23;100470.91;;;17.42;75.36
58927;BME280;44712;52.530;9.760;2023-08-07T13:55:56;100469.34;;;17.36;75.37
58927;BME280;44712;52.530;9.760;2023-08-07T13:58:23;100474.09;;;17.12;77.29
58927;BME280;44712;52.530;9.760;2023-08-07T14:00:50;100485.50;;;17.01;75.31
58927;BME280;44712;52.530;9.760;2023-08-07T14:03:17;100491.22;;;16.95;76.13
58927;BME280;44712;52.530;9.760;2023-08-07T14:05:44;100489.25;;;16.77;75.80
58927;BME280;44712;52.530;9.760;2023-08-07T14:08:11;100497.09;;;16.64;74.98
58927;BME280;44712;52.530;9.760;2023-08-07T14:10:38;100499.47;;;16.71;76.80
58927;BME280;44712;52.530;9.760;2023-08-07T14:13:07;100508.75;;;16.67;75.84
58927;BME280;44712;52.530;9.760;2023-08-07T14:15:35;100512.72;;;16.60;76.14
58927;BME280;44712;52.530;9.760;2023-08-07T14:18:02;100516.22;;;16.64;76.84
58927;BME280;44712;52.530;9.760;2023-08-07T14:20:29;100510.63;;;16.67;76.44
58927;BME280;44712;52.530;9.760;2023-08-07T14:22:56;100497.88;;;16.88;75.94
58927;BME280;44712;52.530;9.760;2023-08-07T14:25:38;100512.53;;;17.07;76.67
58927;BME280;44712;52.530;9.760;2023-08-07T14:28:04;100498.50;;;17.37;72.29
58927;BME280;44712;52.530;9.760;2023-08-07T14:30:33;100501.50;;;17.52;72.04
58927;BME280;44712;52.530;9.760;2023-08-07T14:33:00;100497.34;;;17.62;70.63
58927;BME280;44712;52.530;9.760;2023-08-07T14:35:27;100504.19;;;17.72;70.59
58927;BME280;44712;52.530;9.760;2023-08-07T14:37:53;100512.94;;;17.81;67.44
58927;BME280;44712;52.530;9.760;2023-08-07T14:40:20;100488.97;;;17.86;64.70
58927;BME280;44712;52.530;9.760;2023-08-07T14:42:48;100504.19;;;17.72;66.65
58927;BME280;44712;52.530;9.760;2023-08-07T14:45:15;100504.75;;;17.60;67.89
58927;BME280;44712;52.530;9.760;2023-08-07T14:47:45;100498.88;;;17.69;66.93
58927;BME280;44712;52.530;9.760;2023-08-07T14:50:12;100505.97;;;17.73;66.64
58927;BME280;44712;52.530;9.760;2023-08-07T14:52:39;100507.47;;;17.81;67.30
58927;BME280;44712;52.530;9.760;2023-08-07T14:55:06;100519.81;;;17.70;67.78
58927;BME280;44712;52.530;9.760;2023-08-07T14:57:32;100510.25;;;17.60;66.83
58927;BME280;44712;52.530;9.760;2023-08-07T15:00:00;100522.97;;;17.61;68.57
58927;BME280;44712;52.530;9.760;2023-08-07T15:02:30;100535.53;;;17.45;67.06
58927;BME280;44712;52.530;9.760;2023-08-07T16:16:08;100607.00;;;16.70;75.93
58927;BME280;44712;52.530;9.760;2023-08-07T16:18:35;100610.75;;;16.68;75.83
58927;BME280;44712;52.530;9.760;2023-08-07T16:21:03;100589.56;;;16.51;74.24
58927;BME280;44712;52.530;9.760;2023-08-07T16:23:29;100595.53;;;16.38;74.06
58927;BME280;44712;52.530;9.760;2023-08-07T16:32:10;100622.88;;;16.13;80.18
58927;BME280;44712;52.530;9.760;2023-08-07T16:34:38;100623.53;;;16.20;81.00
58927;BME280;44712;52.530;9.760;2023-08-07T17:34:24;100631.88;;;15.13;98.57
58927;BME280;44712;52.530;9.760;2023-08-07T17:36:51;100639.19;;;15.11;99.38
58927;BME280;44712;52.530;9.760;2023-08-07T17:39:19;100643.22;;;14.99;100.00
58927;BME280;44712;52.530;9.760;2023-08-07T17:41:45;100642.81;;;14.83;100.00
58927;BME280;44712;52.530;9.760;2023-08-07T17:44:14;100628.56;;;14.75;100.00
58927;BME280;44712;52.530;9.760;2023-08-07T17:46:41;100631.28;;;14.75;100.00
58927;BME280;44712;52.530;9.760;2023-08-07T17:49:08;100618.97;;;14.61;100.00
58927;BME280;44712;52.530;9.760;2023-08-07T17:51:35;100623.41;;;14.65;100.00
58927;BME280;44712;52.530;9.760;2023-08-07T17:54:02;100618.13;;;14.59;100.00
58927;BME280;44712;52.530;9.760;2023-08-07T17:56:29;100616.34;;;14.58;100.00
58927;BME280;44712;52.530;9.760;2023-08-07T17:58:56;100611.88;;;14.55;100.00
58927;BME280;44712;52.530;9.760;2023-08-07T18:01:22;100611.06;;;14.52;100.00
58927;BME280;44712;52.530;9.760;2023-08-07T18:03:50;100608.19;;;14.58;100.00
58927;BME280;44712;52.530;9.760;2023-08-07T18:06:16;100618.22;;;14.56;100.00
58927;BME280;44712;52.530;9.760;2023-08-07T18:08:43;100618.13;;;14.59;100.00
58927;BME280;44712;52.530;9.760;2023-08-07T18:11:10;100610.91;;;14.58;100.00
58927;BME280;44712;52.530;9.760;2023-08-07T18:13:37;100622.88;;;14.52;100.00
58927;BME280;44712;52.530;9.760;2023-08-07T18:16:05;100614.13;;;14.41;100.00
58927;BME280;44712;52.530;9.760;2023-08-07T18:18:31;100615.97;;;14.40;100.00
58927;BME280;44712;52.530;9.760;2023-08-07T18:20:58;100615.94;;;14.42;100.00
58927;BME280;44712;52.530;9.760;2023-08-07T18:23:25;100618.72;;;14.40;100.00
58927;BME280;44712;52.530;9.760;2023-08-07T18:25:52;100611.66;;;14.33;100.00
58927;BME280;44712;52.530;9.760;2023-08-07T18:28:19;100618.97;;;14.31;100.00
58927;BME280;44712;52.530;9.760;2023-08-07T18:30:46;100612.50;;;14.35;100.00
58927;BME280;44712;52.530;9.760;2023-08-07T18:33:13;100617.03;;;14.36;100.00
58927;BME280;44712;52.530;9.760;2023-08-07T18:35:41;100619.75;;;14.36;100.00
58927;BME280;44712;52.530;9.760;2023-08-07T18:38:08;100617.84;;;14.38;100.00
58927;BME280;44712;52.530;9.760;2023-08-07T18:40:35;100614.38;;;14.33;100.00
58927;BME280;44712;52.530;9.760;2023-08-07T18:43:05;100617.03;;;14.36;100.00
58927;BME280;44712;52.530;9.760;2023-08-07T18:45:32;100621.75;;;14.30;100.00
58927;BME280;44712;52.530;9.760;2023-08-07T18:47:58;100622.75;;;14.27;100.00
58927;BME280;44712;52.530;9.760;2023-08-07T18:50:25;100618.06;;;14.31;100.00
58927;BME280;44712;52.530;9.760;2023-08-07T18:52:52;100624.59;;;14.25;100.00
58927;BME280;44712;52.530;9.760;2023-08-07T18:55:19;100625.59;;;14.22;100.00
58927;BME280;44712;52.530;9.760;2023-08-07T18:57:46;100625.78;;;14.16;100.00
58927;BME280;44712;52.530;9.760;2023-08-07T19:00:13;100632.78;;;14.25;100.00
58927;BME280;44712;52.530;9.760;2023-08-07T19:02:40;100624.88;;;14.16;100.00
58927;BME280;44712;52.530;9.760;2023-08-07T19:05:09;100637.44;;;14.20;100.00
58927;BME280;44712;52.530;9.760;2023-08-07T19:07:37;100633.81;;;14.21;100.00
58927;BME280;44712;52.530;9.760;2023-08-07T19:10:06;100639.34;;;14.18;99.87
58927;BME280;44712;52.530;9.760;2023-08-07T19:12:34;100644.78;;;14.18;98.97
58927;BME280;44712;52.530;9.760;2023-08-07T19:15:02;100640.13;;;14.21;97.50
58927;BME280;44712;52.530;9.760;2023-08-07T19:17:31;100635.53;;;14.23;92.53
58927;BME280;44712;52.530;9.760;2023-08-07T19:20:01;100636.34;;;14.27;90.20